createdAt,value
2022-12-05T00:00:15.006Z,71.00
2022-12-05T00:02:43.516Z,69.10
2022-12-05T00:05:13.411Z,70.10
2022-12-05T00:07:42.323Z,70.40
2022-12-05T00:10:12.267Z,71.10
2022-12-05T00:12:41.057Z,69.90
2022-12-05T00:46:25.860Z,69.00
2022-12-05T00:48:55.320Z,69.40
2022-12-05T00:51:27.092Z,69.10
2022-12-05T00:53:56.815Z,69.30
2022-12-05T00:56:27.175Z,69.40
2022-12-05T00:58:57.950Z,69.40
2022-12-05T01:01:30.145Z,69.20
2022-12-05T01:04:03.350Z,69.20
2022-12-05T01:06:32.123Z,69.30
2022-12-05T01:09:00.881Z,69.30
2022-12-05T01:11:30.066Z,69.50
2022-12-05T01:13:58.846Z,69.40
2022-12-05T01:45:44.407Z,68.90
2022-12-05T01:48:22.388Z,69.10
2022-12-05T01:50:52.367Z,69.40
2022-12-05T01:53:21.943Z,69.80
2022-12-05T01:55:52.350Z,69.20
2022-12-05T01:58:22.824Z,69.40
2022-12-05T02:00:52.777Z,69.20
2022-12-05T02:03:22.997Z,70.50
2022-12-05T02:05:54.736Z,70.10
2022-12-05T02:08:23.819Z,69.40
2022-12-05T02:10:56.562Z,70.00
2022-12-05T02:13:56.760Z,69.50
2022-12-05T02:16:41.127Z,69.20
2022-12-05T02:19:54.032Z,69.20
2022-12-05T02:22:56.320Z,69.20
2022-12-05T02:26:15.396Z,69.20
2022-12-05T02:29:22.555Z,69.10
2022-12-05T02:32:00.377Z,69.40
2022-12-05T02:34:35.671Z,69.40
2022-12-05T02:37:10.933Z,69.30
2022-12-05T02:39:46.651Z,69.50
2022-12-05T02:42:23.392Z,69.60
2022-12-05T02:44:57.756Z,69.60
2022-12-05T02:47:32.924Z,69.50
2022-12-05T02:50:02.127Z,69.70
2022-12-05T02:52:33.394Z,70.10
2022-12-05T02:55:02.669Z,69.60
2022-12-05T02:57:31.939Z,70.40
2022-12-05T03:00:00.531Z,70.20
2022-12-05T03:46:48.458Z,69.30
2022-12-05T03:49:30.594Z,69.40
2022-12-05T03:52:10.745Z,69.60
2022-12-05T03:54:43.365Z,69.40
2022-12-05T03:57:17.451Z,69.50
2022-12-05T03:59:52.670Z,69.70
2022-12-05T04:46:45.916Z,71.60
2022-12-05T04:49:20.913Z,72.40
2022-12-05T04:51:52.761Z,72.80
2022-12-05T04:54:28.438Z,72.50
2022-12-05T04:57:13.934Z,74.10
2022-12-05T04:59:42.422Z,73.20
2022-12-05T05:30:42.008Z,72.30
2022-12-05T05:33:10.399Z,72.50
2022-12-05T05:35:39.595Z,72.20
2022-12-05T05:38:08.598Z,72.00
2022-12-05T05:40:37.875Z,71.80
2022-12-05T05:43:07.573Z,72.00
2022-12-05T05:45:37.356Z,72.00
2022-12-05T05:48:07.675Z,72.10
2022-12-05T05:50:36.275Z,72.10
2022-12-05T05:53:12.582Z,72.20
2022-12-05T05:55:41.521Z,72.10
2022-12-05T05:58:10.576Z,72.20
2022-12-05T06:00:39.394Z,72.40
2022-12-05T06:03:09.983Z,72.50
2022-12-05T06:05:38.956Z,72.60
2022-12-05T06:08:07.683Z,72.80
2022-12-05T06:10:36.497Z,73.10
2022-12-05T06:13:04.888Z,73.20
2022-12-05T06:15:33.185Z,73.50
2022-12-05T06:18:01.587Z,74.20
2022-12-05T06:20:31.323Z,74.80
2022-12-05T06:22:59.751Z,81.80
2022-12-05T06:25:28.088Z,76.20
2022-12-05T06:27:56.460Z,76.20
2022-12-05T06:30:24.831Z,76.60
2022-12-05T06:32:53.164Z,78.40
2022-12-05T06:35:21.816Z,80.90
2022-12-05T06:37:51.763Z,78.10
2022-12-05T06:40:20.240Z,79.00
2022-12-05T06:42:48.688Z,78.80
2022-12-05T06:45:17.145Z,78.40
2022-12-05T06:47:45.779Z,78.20
2022-12-05T06:50:14.228Z,78.20
2022-12-05T06:52:42.593Z,80.70
2022-12-05T06:55:12.904Z,81.60
2022-12-05T06:57:41.315Z,82.80
2022-12-05T07:00:25.487Z,82.80
2022-12-05T07:02:54.657Z,82.40
2022-12-05T07:05:23.195Z,81.20
2022-12-05T07:07:52.099Z,80.30
2022-12-05T07:10:22.064Z,79.40
2022-12-05T07:12:50.499Z,79.20
2022-12-05T07:15:19.075Z,79.10
2022-12-05T07:17:47.474Z,78.70
2022-12-05T07:20:17.843Z,78.70
2022-12-05T07:22:46.595Z,79.10
2022-12-05T07:25:14.963Z,79.70
2022-12-05T07:27:44.662Z,79.80
2022-12-05T07:30:13.779Z,80.10
2022-12-05T07:32:42.111Z,80.00
2022-12-05T07:35:10.791Z,80.20
2022-12-05T07:37:39.698Z,80.10
2022-12-05T07:40:11.019Z,80.90
2022-12-05T07:45:13.540Z,79.10
2022-12-05T07:47:42.023Z,80.30
2022-12-05T07:52:40.821Z,77.90
2022-12-05T07:55:10.575Z,80.40
2022-12-05T07:57:39.064Z,78.70
2022-12-05T08:00:11.016Z,80.00
2022-12-05T08:02:42.341Z,80.50
2022-12-05T08:07:40.766Z,77.50
2022-12-05T08:10:10.723Z,78.60
2022-12-05T08:12:39.855Z,78.90
2022-12-05T08:15:11.392Z,79.20
2022-12-05T08:17:40.146Z,79.40
2022-12-05T08:20:10.600Z,80.00
2022-12-05T08:22:38.978Z,81.00
2022-12-05T08:27:38.061Z,82.50
2022-12-05T08:30:10.713Z,83.30
2022-12-05T08:32:39.105Z,83.30
2022-12-05T08:35:08.085Z,83.90
2022-12-05T08:37:36.585Z,83.80
2022-12-05T08:40:06.697Z,84.10
2022-12-05T08:42:35.090Z,83.80
2022-12-05T08:45:03.821Z,83.80
2022-12-05T08:47:33.661Z,83.90
2022-12-05T08:50:02.049Z,84.40
2022-12-05T08:52:31.179Z,84.70
2022-12-05T08:55:00.059Z,84.50
2022-12-05T08:57:28.544Z,84.70
2022-12-05T08:59:56.877Z,85.20
2022-12-05T09:02:25.800Z,86.10
2022-12-05T09:10:17.002Z,84.20
2022-12-05T09:12:45.615Z,83.80
2022-12-05T09:17:43.881Z,85.10
2022-12-05T09:20:14.728Z,81.10
2022-12-05T09:22:43.424Z,80.70
2022-12-05T09:25:11.821Z,80.90
2022-12-05T09:27:40.643Z,80.70
2022-12-05T09:30:11.224Z,80.80
2022-12-05T09:32:39.743Z,80.80
2022-12-05T09:35:09.496Z,80.70
2022-12-05T09:37:40.336Z,80.30
2022-12-05T09:40:16.521Z,80.70
2022-12-05T09:42:58.512Z,80.50
2022-12-05T09:45:33.708Z,80.70
2022-12-05T09:55:56.686Z,85.10
2022-12-05T09:58:40.013Z,85.80
2022-12-05T10:01:26.996Z,85.70
2022-12-05T10:04:22.565Z,85.70
2022-12-05T10:07:00.674Z,86.00
2022-12-05T10:09:49.048Z,85.40
2022-12-05T10:12:32.457Z,85.10
2022-12-05T10:15:10.152Z,85.00
2022-12-05T10:17:43.016Z,85.10
2022-12-05T10:20:17.598Z,84.90
2022-12-05T10:22:49.603Z,84.90
2022-12-05T10:25:23.041Z,84.80
2022-12-05T10:27:54.193Z,84.80
2022-12-05T10:30:25.823Z,84.90
2022-12-05T10:32:57.132Z,85.10
2022-12-05T10:35:28.922Z,85.20
2022-12-05T10:37:59.466Z,85.10
2022-12-05T10:40:37.246Z,86.10
2022-12-05T10:43:08.221Z,85.90
2022-12-05T10:48:14.047Z,83.00
2022-12-05T10:53:19.705Z,82.20
2022-12-05T10:56:28.062Z,83.80
2022-12-05T10:58:39.820Z,80.60
2022-12-05T11:01:11.614Z,78.40
2022-12-05T11:03:42.232Z,77.80
2022-12-05T11:06:18.758Z,77.90
2022-12-05T11:09:04.552Z,78.20
2022-12-05T11:11:35.919Z,78.50
2022-12-05T11:14:07.396Z,79.40
2022-12-05T11:16:39.256Z,80.60
2022-12-05T11:21:56.254Z,78.20
2022-12-05T11:24:29.424Z,79.60
2022-12-05T11:27:01.372Z,67.80
2022-12-05T11:29:36.402Z,68.80
2022-12-05T11:32:06.201Z,68.80
2022-12-05T11:34:42.254Z,68.80
2022-12-05T11:37:16.641Z,68.70
2022-12-05T11:39:46.955Z,68.50
2022-12-05T11:42:39.944Z,68.60
2022-12-05T11:45:31.830Z,68.40
2022-12-05T11:48:19.023Z,68.50
2022-12-05T11:50:59.525Z,68.20
2022-12-05T11:53:50.322Z,68.20
2022-12-05T11:56:32.566Z,68.00
2022-12-05T11:59:48.357Z,67.90
2022-12-05T12:02:32.982Z,68.00
2022-12-05T12:05:16.280Z,68.20
2022-12-05T12:08:04.679Z,69.50
2022-12-05T12:10:44.448Z,70.30
2022-12-05T12:13:31.946Z,69.50
2022-12-05T12:16:13.870Z,69.40
2022-12-05T12:19:26.151Z,69.80
2022-12-05T12:22:13.659Z,69.70
2022-12-05T12:25:03.359Z,70.00
2022-12-05T12:27:48.576Z,70.00
2022-12-05T12:30:21.646Z,70.10
2022-12-05T12:33:03.895Z,69.90
2022-12-05T12:35:33.493Z,70.00
2022-12-05T12:38:43.054Z,70.20
2022-12-05T12:41:28.883Z,69.90
2022-12-05T12:44:12.127Z,69.80
2022-12-05T12:46:51.163Z,69.80
2022-12-05T12:49:45.031Z,69.70
2022-12-05T12:52:17.041Z,69.70
2022-12-05T12:55:07.862Z,69.70
2022-12-05T12:58:04.823Z,69.50
2022-12-05T13:00:49.054Z,69.60
2022-12-05T13:03:23.953Z,69.50
2022-12-05T13:05:59.608Z,69.40
2022-12-05T13:08:35.208Z,69.50
2022-12-05T13:11:09.470Z,69.30
2022-12-05T13:13:43.013Z,69.40
2022-12-05T13:16:18.180Z,68.80
2022-12-05T13:18:47.283Z,68.70
2022-12-05T13:21:17.188Z,68.50
2022-12-05T13:23:49.945Z,68.50
2022-12-05T13:26:21.452Z,68.40
2022-12-05T13:28:54.475Z,68.40
2022-12-05T13:31:38.457Z,68.80
2022-12-05T13:34:07.179Z,68.70
2022-12-05T13:37:00.034Z,69.10
2022-12-05T13:39:46.084Z,68.70
2022-12-05T13:42:25.066Z,68.50
2022-12-05T13:44:57.815Z,68.50
2022-12-05T13:47:33.663Z,68.50
2022-12-05T13:50:11.317Z,68.20
2022-12-05T13:52:49.906Z,68.40
2022-12-05T13:55:35.240Z,68.40
2022-12-05T13:58:25.252Z,69.70
2022-12-05T14:01:14.044Z,69.50
2022-12-05T14:04:02.091Z,70.00
2022-12-05T14:06:58.048Z,70.00
2022-12-05T14:09:31.980Z,69.30
2022-12-05T14:12:31.560Z,69.60
2022-12-05T14:15:03.891Z,69.10
2022-12-05T14:17:42.747Z,69.40
2022-12-05T14:20:26.595Z,69.40
2022-12-05T14:23:22.419Z,69.40
2022-12-05T14:26:15.504Z,69.30
2022-12-05T14:29:03.939Z,69.10
2022-12-05T14:31:50.785Z,69.10
2022-12-05T14:34:25.130Z,69.00
2022-12-05T14:36:58.428Z,69.10
2022-12-05T14:39:38.398Z,69.80
2022-12-05T14:42:22.980Z,69.10
2022-12-05T14:44:55.173Z,69.10
2022-12-05T14:47:27.495Z,69.20
2022-12-05T14:50:04.313Z,69.20
2022-12-05T14:52:35.328Z,69.20
2022-12-05T14:55:12.411Z,69.30
2022-12-05T14:57:49.615Z,69.10
2022-12-05T15:00:23.649Z,69.20
2022-12-05T15:02:55.443Z,69.20
2022-12-05T15:05:31.136Z,69.30
2022-12-05T15:08:02.464Z,69.10
2022-12-05T15:10:35.872Z,69.60
2022-12-05T15:13:12.251Z,69.10
2022-12-05T15:15:46.916Z,69.20
2022-12-05T15:18:22.446Z,68.80
2022-12-05T15:20:55.720Z,68.90
2022-12-05T15:23:43.414Z,68.90
2022-12-05T15:26:45.975Z,69.30
2022-12-05T15:29:16.245Z,69.20
2022-12-05T15:31:48.236Z,69.20
2022-12-05T15:34:21.756Z,70.10
2022-12-05T15:36:56.614Z,69.30
2022-12-05T15:39:28.658Z,69.20
2022-12-05T15:41:58.685Z,68.90
2022-12-05T15:44:37.432Z,68.80
2022-12-05T15:47:06.616Z,69.00
2022-12-05T15:49:36.841Z,69.10
2022-12-05T15:52:16.618Z,69.30
2022-12-05T15:54:47.258Z,69.40
2022-12-05T15:57:20.746Z,69.10
2022-12-05T15:59:53.249Z,69.20
2022-12-05T16:02:32.394Z,69.50
2022-12-05T16:05:01.777Z,69.90
2022-12-05T16:07:32.165Z,70.00
2022-12-05T16:10:03.228Z,70.00
2022-12-05T16:12:38.594Z,70.20
2022-12-05T16:15:15.622Z,70.10
2022-12-05T16:17:48.002Z,70.10
2022-12-05T16:20:31.398Z,70.20
2022-12-05T16:23:04.394Z,70.30
2022-12-05T16:25:36.351Z,70.30
2022-12-05T16:28:17.648Z,70.40
2022-12-05T16:30:59.527Z,70.40
2022-12-05T16:33:29.773Z,70.20
2022-12-05T16:36:08.017Z,70.90
2022-12-05T16:38:36.495Z,71.20
2022-12-05T16:41:09.139Z,71.60
2022-12-05T16:43:46.731Z,71.70
2022-12-05T16:46:47.332Z,71.40
2022-12-05T16:49:35.213Z,71.30
2022-12-05T16:52:14.402Z,71.30
2022-12-05T16:54:44.355Z,71.10
2022-12-05T16:57:17.171Z,71.40
2022-12-05T16:59:48.753Z,71.10
2022-12-05T17:02:19.931Z,71.30
2022-12-05T17:04:49.213Z,71.20
2022-12-05T17:07:17.801Z,70.90
2022-12-05T17:09:47.364Z,72.00
2022-12-05T17:12:25.169Z,71.50
2022-12-05T17:14:53.499Z,71.20
2022-12-05T17:17:22.424Z,71.00
2022-12-05T17:19:52.855Z,69.70
2022-12-05T17:22:21.418Z,69.70
2022-12-05T17:24:51.887Z,69.80
2022-12-05T17:27:23.220Z,73.70
2022-12-05T17:29:52.368Z,79.10
2022-12-05T17:32:21.782Z,78.20
2022-12-05T17:34:50.394Z,77.60
2022-12-05T17:37:18.838Z,76.60
2022-12-05T17:39:49.711Z,76.10
2022-12-05T17:42:21.755Z,76.90
2022-12-05T17:44:53.286Z,90.50
2022-12-05T17:47:23.554Z,84.40
2022-12-05T17:49:52.502Z,83.90
2022-12-05T17:52:23.019Z,86.40
2022-12-05T17:54:53.460Z,85.40
2022-12-05T17:57:23.556Z,86.00
2022-12-05T17:59:55.594Z,86.70
2022-12-05T18:02:24.767Z,88.80
2022-12-05T18:04:53.816Z,84.00
2022-12-05T18:07:23.383Z,84.80
2022-12-05T18:09:51.876Z,86.10
2022-12-05T18:12:20.997Z,86.40
2022-12-05T18:14:49.595Z,85.80
2022-12-05T18:17:19.515Z,86.00
2022-12-05T18:19:48.028Z,85.90
2022-12-05T18:22:18.624Z,85.70
2022-12-05T18:24:48.758Z,85.60
2022-12-05T18:27:17.377Z,86.00
2022-12-05T18:29:48.199Z,85.50
2022-12-05T18:32:19.327Z,84.90
2022-12-05T18:34:47.911Z,84.30
2022-12-05T18:37:18.322Z,83.50
2022-12-05T18:39:47.034Z,82.10
2022-12-05T18:42:16.104Z,79.70
2022-12-05T18:44:44.805Z,78.90
2022-12-05T18:47:13.635Z,79.60
2022-12-05T18:49:43.826Z,80.30
2022-12-05T18:52:12.611Z,81.20
2022-12-05T18:54:41.341Z,81.80
2022-12-05T18:57:09.997Z,78.70
2022-12-05T18:59:38.731Z,78.30
2022-12-05T19:02:07.333Z,82.30
2022-12-05T19:04:35.912Z,82.30
2022-12-05T19:07:05.723Z,82.70
2022-12-05T19:09:35.801Z,80.90
2022-12-05T19:12:04.315Z,81.20
2022-12-05T19:14:33.424Z,80.70
2022-12-05T19:17:03.984Z,80.10
2022-12-05T19:19:33.245Z,79.50
2022-12-05T19:22:02.238Z,78.80
2022-12-05T19:24:32.443Z,77.90
2022-12-05T19:27:01.080Z,77.20
2022-12-05T19:29:29.413Z,76.60
2022-12-05T19:31:58.041Z,76.50
2022-12-05T19:34:26.587Z,76.10
2022-12-05T19:36:55.024Z,76.00
2022-12-05T19:39:27.115Z,75.70
2022-12-05T19:41:59.384Z,75.50
2022-12-05T19:44:28.123Z,75.50
2022-12-05T19:46:56.529Z,75.30
2022-12-05T19:49:25.796Z,75.20
2022-12-05T19:51:54.180Z,75.10
2022-12-05T19:54:24.142Z,75.00
2022-12-05T19:56:53.814Z,74.90
2022-12-05T19:59:23.859Z,74.90
2022-12-05T20:01:52.422Z,74.80
2022-12-05T20:04:20.981Z,74.80
2022-12-05T20:06:50.489Z,74.70
2022-12-05T20:09:21.911Z,74.60
2022-12-05T20:11:55.077Z,74.60
2022-12-05T20:14:26.944Z,73.90
2022-12-05T20:16:55.744Z,74.00
2022-12-05T20:19:24.474Z,73.90
2022-12-05T20:21:55.231Z,74.00
2022-12-05T20:24:23.704Z,74.10
2022-12-05T20:26:52.926Z,73.70
2022-12-05T20:29:21.293Z,73.70
2022-12-05T20:31:56.637Z,73.60
2022-12-05T20:34:25.288Z,73.40
2022-12-05T20:36:53.628Z,73.60
2022-12-05T20:39:21.991Z,73.50
2022-12-05T20:41:50.921Z,73.40
2022-12-05T20:44:19.404Z,72.90
2022-12-05T20:46:51.860Z,73.00
2022-12-05T20:49:20.830Z,72.60
2022-12-05T20:51:49.445Z,72.70
2022-12-05T20:54:18.425Z,72.80
2022-12-05T20:56:47.405Z,72.70
2022-12-05T20:59:16.208Z,72.60
2022-12-05T21:01:44.920Z,72.70
2022-12-05T21:04:15.073Z,73.40
2022-12-05T21:06:45.963Z,72.60
2022-12-05T21:09:26.727Z,72.70
2022-12-05T21:11:56.200Z,72.70
2022-12-05T21:14:25.461Z,72.50
2022-12-05T21:16:53.961Z,72.50
2022-12-05T21:19:24.051Z,72.60
2022-12-05T21:21:53.791Z,72.50
2022-12-05T21:24:22.509Z,72.60
2022-12-05T21:26:51.972Z,72.70
2022-12-05T21:29:21.435Z,72.60
2022-12-05T21:31:51.932Z,72.60
2022-12-05T21:34:21.750Z,73.00
2022-12-05T21:36:51.453Z,73.50
2022-12-05T21:39:20.116Z,73.40
2022-12-05T21:41:48.599Z,73.50
2022-12-05T21:44:16.948Z,73.30
2022-12-05T21:46:45.466Z,72.10
2022-12-05T21:49:13.918Z,72.10
2022-12-05T21:51:42.290Z,72.00
2022-12-05T21:54:12.162Z,71.90
2022-12-05T21:56:40.496Z,71.90
2022-12-05T21:59:08.895Z,72.00
2022-12-05T22:01:37.337Z,71.80
2022-12-05T22:04:06.090Z,71.50
2022-12-05T22:06:35.114Z,70.70
2022-12-05T22:09:04.757Z,70.40
2022-12-05T22:11:34.710Z,71.30
2022-12-05T22:14:03.160Z,70.80
2022-12-05T22:16:33.552Z,71.70
2022-12-05T22:19:03.027Z,71.90
2022-12-05T22:21:33.818Z,71.60
2022-12-05T22:24:02.372Z,71.70
2022-12-05T22:26:31.024Z,71.50
2022-12-05T22:29:00.837Z,71.40
2022-12-05T22:31:29.426Z,71.70
2022-12-05T22:33:57.875Z,78.50
2022-12-05T22:36:26.593Z,77.00
2022-12-05T22:38:54.966Z,76.50
2022-12-05T22:41:26.193Z,76.50
2022-12-05T22:43:57.866Z,74.00
2022-12-05T22:46:29.303Z,72.80
2022-12-05T22:48:58.593Z,70.10
2022-12-05T22:51:27.891Z,70.00
2022-12-05T22:53:56.655Z,70.00
2022-12-05T22:56:28.336Z,69.60
2022-12-05T22:58:58.616Z,69.80
2022-12-05T23:01:32.322Z,69.90
2022-12-05T23:04:03.570Z,70.30
2022-12-05T23:06:34.574Z,70.40
2022-12-05T23:09:05.420Z,70.70
2022-12-05T23:11:34.541Z,70.80
2022-12-05T23:14:03.355Z,70.90
2022-12-05T23:16:35.011Z,71.00
2022-12-05T23:19:06.107Z,71.00
2022-12-05T23:21:36.938Z,71.10
2022-12-05T23:24:09.174Z,71.00
2022-12-05T23:26:40.235Z,71.20
2022-12-05T23:29:08.848Z,71.20
2022-12-05T23:47:28.645Z,70.80
2022-12-05T23:49:57.550Z,71.70
2022-12-05T23:52:26.290Z,72.00
2022-12-05T23:54:55.215Z,71.50
2022-12-05T23:57:23.651Z,72.40
2022-12-05T23:59:52.156Z,72.40
